sensor_id;sensor_type;location;lat;lon;timestamp;pressure;altitude;pressure_sealevel;temperature
49557;BMP280;35462;45.048;7.666;2022-12-20T00:09:00;100370.97;;;4.24
49557;BMP280;35462;45.048;7.666;2022-12-20T00:24:16;100351.34;;;4.30
49557;BMP280;35462;45.048;7.666;2022-12-20T00:39:32;100346.59;;;4.24
49557;BMP280;35462;45.048;7.666;2022-12-20T00:54:47;100340.59;;;4.23
49557;BMP280;35462;45.048;7.666;2022-12-20T01:10:03;100311.28;;;4.21
49557;BMP280;35462;45.048;7.666;2022-12-20T01:25:19;100319.03;;;4.09
49557;BMP280;35462;45.048;7.666;2022-12-20T01:40:37;100307.84;;;4.00
49557;BMP280;35462;45.048;7.666;2022-12-20T01:55:54;100305.34;;;3.95
49557;BMP280;35462;45.048;7.666;2022-12-20T02:42:09;100269.56;;;3.70
49557;BMP280;35462;45.048;7.666;2022-12-20T02:57:36;100246.72;;;3.79
49557;BMP280;35462;45.048;7.666;2022-12-20T03:12:52;100240.88;;;3.74
49557;BMP280;35462;45.048;7.666;2022-12-20T03:28:09;100246.78;;;3.62
49557;BMP280;35462;45.048;7.666;2022-12-20T03:43:25;100226.00;;;3.57
49557;BMP280;35462;45.048;7.666;2022-12-20T03:58:41;100218.53;;;3.31
49557;BMP280;35462;45.048;7.666;2022-12-20T04:13:57;100208.97;;;3.26
49557;BMP280;35462;45.048;7.666;2022-12-20T04:29:13;100220.38;;;3.22
49557;BMP280;35462;45.048;7.666;2022-12-20T04:44:30;100203.91;;;3.30
49557;BMP280;35462;45.048;7.666;2022-12-20T04:59:46;100187.88;;;3.31
49557;BMP280;35462;45.048;7.666;2022-12-20T05:15:03;100188.34;;;3.25
49557;BMP280;35462;45.048;7.666;2022-12-20T05:30:19;100196.78;;;3.39
49557;BMP280;35462;45.048;7.666;2022-12-20T05:45:36;100173.69;;;3.41
49557;BMP280;35462;45.048;7.666;2022-12-20T06:01:01;100183.53;;;3.43
49557;BMP280;35462;45.048;7.666;2022-12-20T06:16:18;100184.31;;;3.36
49557;BMP280;35462;45.048;7.666;2022-12-20T06:31:35;100167.81;;;3.43
49557;BMP280;35462;45.048;7.666;2022-12-20T06:46:51;100176.25;;;3.57
49557;BMP280;35462;45.048;7.666;2022-12-20T07:02:10;100169.25;;;3.70
49557;BMP280;35462;45.048;7.666;2022-12-20T07:17:26;100176.63;;;3.76
49557;BMP280;35462;45.048;7.666;2022-12-20T07:32:42;100172.91;;;3.77
49557;BMP280;35462;45.048;7.666;2022-12-20T07:47:58;100177.06;;;3.78
49557;BMP280;35462;45.048;7.666;2022-12-20T08:03:18;100172.38;;;3.92
49557;BMP280;35462;45.048;7.666;2022-12-20T08:18:35;100173.41;;;4.00
49557;BMP280;35462;45.048;7.666;2022-12-20T08:33:53;100168.50;;;4.27
49557;BMP280;35462;45.048;7.666;2022-12-20T08:49:09;100174.59;;;4.52
49557;BMP280;35462;45.048;7.666;2022-12-20T09:04:28;100167.59;;;4.64
49557;BMP280;35462;45.048;7.666;2022-12-20T09:19:44;100175.63;;;4.80
49557;BMP280;35462;45.048;7.666;2022-12-20T09:35:00;100169.25;;;5.13
49557;BMP280;35462;45.048;7.666;2022-12-20T09:50:17;100165.44;;;5.22
49557;BMP280;35462;45.048;7.666;2022-12-20T10:05:44;100146.09;;;5.27
49557;BMP280;35462;45.048;7.666;2022-12-20T10:36:25;100116.44;;;5.74
49557;BMP280;35462;45.048;7.666;2022-12-20T10:51:51;100105.09;;;5.98
49557;BMP280;35462;45.048;7.666;2022-12-20T11:54:02;99977.03;;;6.72
49557;BMP280;35462;45.048;7.666;2022-12-20T12:09:24;99978.34;;;6.97
49557;BMP280;35462;45.048;7.666;2022-12-20T12:24:45;99966.69;;;7.13
49557;BMP280;35462;45.048;7.666;2022-12-20T12:55:50;99919.44;;;7.39
49557;BMP280;35462;45.048;7.666;2022-12-20T13:11:12;99891.72;;;7.26
49557;BMP280;35462;45.048;7.666;2022-12-20T13:26:58;99878.13;;;7.24
49557;BMP280;35462;45.048;7.666;2022-12-20T13:42:28;99873.56;;;7.21
49557;BMP280;35462;45.048;7.666;2022-12-20T13:57:46;99862.44;;;7.31
49557;BMP280;35462;45.048;7.666;2022-12-20T14:13:18;99865.63;;;7.40
49557;BMP280;35462;45.048;7.666;2022-12-20T14:28:37;99870.97;;;7.43
49557;BMP280;35462;45.048;7.666;2022-12-20T14:43:55;99872.63;;;7.51
49557;BMP280;35462;45.048;7.666;2022-12-20T14:59:14;99862.84;;;7.52
49557;BMP280;35462;45.048;7.666;2022-12-20T15:29:52;99857.88;;;7.47
49557;BMP280;35462;45.048;7.666;2022-12-20T15:45:15;99849.84;;;7.40
49557;BMP280;35462;45.048;7.666;2022-12-20T16:00:32;99842.91;;;7.32
49557;BMP280;35462;45.048;7.666;2022-12-20T16:15:48;99825.56;;;7.31
49557;BMP280;35462;45.048;7.666;2022-12-20T16:31:19;99832.66;;;7.27
49557;BMP280;35462;45.048;7.666;2022-12-20T16:46:38;99835.84;;;7.17
49557;BMP280;35462;45.048;7.666;2022-12-20T17:01:55;99824.75;;;7.08
49557;BMP280;35462;45.048;7.666;2022-12-20T17:17:12;99827.00;;;7.06
49557;BMP280;35462;45.048;7.666;2022-12-20T17:32:28;99817.59;;;7.05
49557;BMP280;35462;45.048;7.666;2022-12-20T17:47:45;99793.22;;;7.12
49557;BMP280;35462;45.048;7.666;2022-12-20T18:03:00;99801.88;;;7.12
49557;BMP280;35462;45.048;7.666;2022-12-20T18:18:17;99800.09;;;7.16
49557;BMP280;35462;45.048;7.666;2022-12-20T18:33:33;99804.84;;;7.11
49557;BMP280;35462;45.048;7.666;2022-12-20T18:48:51;99807.06;;;7.09
49557;BMP280;35462;45.048;7.666;2022-12-20T19:04:08;99808.06;;;7.01
49557;BMP280;35462;45.048;7.666;2022-12-20T19:19:27;99795.66;;;7.01
49557;BMP280;35462;45.048;7.666;2022-12-20T19:34:42;99784.84;;;6.87
49557;BMP280;35462;45.048;7.666;2022-12-20T19:49:59;99786.47;;;6.92
49557;BMP280;35462;45.048;7.666;2022-12-20T20:05:15;99772.06;;;6.86
49557;BMP280;35462;45.048;7.666;2022-12-20T20:20:31;99764.72;;;6.95
49557;BMP280;35462;45.048;7.666;2022-12-20T20:35:54;99785.22;;;6.86
49557;BMP280;35462;45.048;7.666;2022-12-20T20:51:11;99781.25;;;6.76
49557;BMP280;35462;45.048;7.666;2022-12-20T21:06:27;99780.84;;;6.74
49557;BMP280;35462;45.048;7.666;2022-12-20T21:21:44;99753.81;;;6.77
49557;BMP280;35462;45.048;7.666;2022-12-20T21:37:00;99759.66;;;6.67
49557;BMP280;35462;45.048;7.666;2022-12-20T21:52:19;99754.03;;;6.69
49557;BMP280;35462;45.048;7.666;2022-12-20T22:07:35;99761.09;;;6.65
49557;BMP280;35462;45.048;7.666;2022-12-20T22:22:50;99755.75;;;6.42
49557;BMP280;35462;45.048;7.666;2022-12-20T22:38:06;99733.53;;;6.40
49557;BMP280;35462;45.048;7.666;2022-12-20T22:53:22;99722.31;;;6.43
49557;BMP280;35462;45.048;7.666;2022-12-20T23:08:38;99708.06;;;6.44
49557;BMP280;35462;45.048;7.666;2022-12-20T23:23:54;99689.16;;;6.38
49557;BMP280;35462;45.048;7.666;2022-12-20T23:39:12;99683.81;;;6.35
49557;BMP280;35462;45.048;7.666;2022-12-20T23:54:28;99652.34;;;6.38
